sensor_id;sensor_type;location;lat;lon;timestamp;temperature;humidity
13596;DHT22;6868;52.544;13.416;2022-07-03T00:01:49;19.50;99.90
13596;DHT22;6868;52.544;13.416;2022-07-03T00:04:16;19.50;99.90
13596;DHT22;6868;52.544;13.416;2022-07-03T00:09:10;19.40;99.90
13596;DHT22;6868;52.544;13.416;2022-07-03T00:11:38;19.30;99.90
13596;DHT22;6868;52.544;13.416;2022-07-03T00:14:05;19.30;99.90
13596;DHT22;6868;52.544;13.416;2022-07-03T00:16:32;19.30;99.90
13596;DHT22;6868;52.544;13.416;2022-07-03T00:18:59;19.20;99.90
13596;DHT22;6868;52.544;13.416;2022-07-03T00:21:27;19.20;99.90
13596;DHT22;6868;52.544;13.416;2022-07-03T00:23:56;19.20;99.90
13596;DHT22;6868;52.544;13.416;2022-07-03T00:26:23;19.20;99.90
13596;DHT22;6868;52.544;13.416;2022-07-03T00:28:52;19.10;99.90
13596;DHT22;6868;52.544;13.416;2022-07-03T00:31:20;19.10;99.90
13596;DHT22;6868;52.544;13.416;2022-07-03T00:33:49;19.10;99.90
13596;DHT22;6868;52.544;13.416;2022-07-03T00:36:16;19.10;99.90
13596;DHT22;6868;52.544;13.416;2022-07-03T00:38:44;19.00;99.90
13596;DHT22;6868;52.544;13.416;2022-07-03T00:41:22;19.00;99.90
13596;DHT22;6868;52.544;13.416;2022-07-03T00:43:50;19.00;99.90
13596;DHT22;6868;52.544;13.416;2022-07-03T00:46:18;19.00;99.90
13596;DHT22;6868;52.544;13.416;2022-07-03T00:48:47;18.90;99.90
13596;DHT22;6868;52.544;13.416;2022-07-03T00:51:15;18.90;99.90
13596;DHT22;6868;52.544;13.416;2022-07-03T00:53:44;18.80;99.90
13596;DHT22;6868;52.544;13.416;2022-07-03T00:56:13;18.80;99.90
13596;DHT22;6868;52.544;13.416;2022-07-03T00:58:40;18.80;99.90
13596;DHT22;6868;52.544;13.416;2022-07-03T01:01:07;18.70;99.90
13596;DHT22;6868;52.544;13.416;2022-07-03T01:03:38;18.70;99.90
13596;DHT22;6868;52.544;13.416;2022-07-03T01:06:08;18.70;99.90
13596;DHT22;6868;52.544;13.416;2022-07-03T01:08:40;18.70;99.90
13596;DHT22;6868;52.544;13.416;2022-07-03T01:11:10;18.70;99.90
13596;DHT22;6868;52.544;13.416;2022-07-03T01:16:11;18.60;99.90
13596;DHT22;6868;52.544;13.416;2022-07-03T01:18:44;18.60;99.90
13596;DHT22;6868;52.544;13.416;2022-07-03T01:21:16;18.60;99.90
13596;DHT22;6868;52.544;13.416;2022-07-03T01:24:03;18.50;99.90
13596;DHT22;6868;52.544;13.416;2022-07-03T01:26:38;18.50;99.90
13596;DHT22;6868;52.544;13.416;2022-07-03T01:29:07;18.40;99.90
13596;DHT22;6868;52.544;13.416;2022-07-03T01:31:34;18.40;99.90
13596;DHT22;6868;52.544;13.416;2022-07-03T01:34:02;18.40;99.90
13596;DHT22;6868;52.544;13.416;2022-07-03T01:36:32;18.40;99.90
13596;DHT22;6868;52.544;13.416;2022-07-03T01:38:58;18.40;99.90
13596;DHT22;6868;52.544;13.416;2022-07-03T01:41:26;18.40;99.90
13596;DHT22;6868;52.544;13.416;2022-07-03T01:43:59;18.40;99.90
13596;DHT22;6868;52.544;13.416;2022-07-03T01:46:29;18.30;99.90
13596;DHT22;6868;52.544;13.416;2022-07-03T01:48:57;18.30;99.90
13596;DHT22;6868;52.544;13.416;2022-07-03T01:51:24;18.30;99.90
13596;DHT22;6868;52.544;13.416;2022-07-03T01:53:52;18.30;99.90
13596;DHT22;6868;52.544;13.416;2022-07-03T01:56:19;18.20;99.90
13596;DHT22;6868;52.544;13.416;2022-07-03T01:58:47;18.20;99.90
13596;DHT22;6868;52.544;13.416;2022-07-03T02:01:17;18.20;99.90
13596;DHT22;6868;52.544;13.416;2022-07-03T02:03:47;18.20;99.90
13596;DHT22;6868;52.544;13.416;2022-07-03T02:06:17;18.20;99.90
13596;DHT22;6868;52.544;13.416;2022-07-03T02:08:48;18.20;99.90
13596;DHT22;6868;52.544;13.416;2022-07-03T02:11:18;18.20;99.90
13596;DHT22;6868;52.544;13.416;2022-07-03T02:13:50;18.20;99.90
13596;DHT22;6868;52.544;13.416;2022-07-03T02:16:19;18.10;99.90
13596;DHT22;6868;52.544;13.416;2022-07-03T02:18:48;18.00;99.90
13596;DHT22;6868;52.544;13.416;2022-07-03T02:21:17;18.00;99.90
13596;DHT22;6868;52.544;13.416;2022-07-03T02:23:47;18.00;99.90
13596;DHT22;6868;52.544;13.416;2022-07-03T02:26:19;18.00;99.90
13596;DHT22;6868;52.544;13.416;2022-07-03T02:28:54;18.00;99.90
13596;DHT22;6868;52.544;13.416;2022-07-03T02:31:25;17.90;99.90
13596;DHT22;6868;52.544;13.416;2022-07-03T02:33:55;17.90;99.90
13596;DHT22;6868;52.544;13.416;2022-07-03T02:36:23;17.90;99.90
13596;DHT22;6868;52.544;13.416;2022-07-03T02:38:52;17.90;99.90
13596;DHT22;6868;52.544;13.416;2022-07-03T02:41:21;17.90;99.90
13596;DHT22;6868;52.544;13.416;2022-07-03T02:43:51;17.90;99.90
13596;DHT22;6868;52.544;13.416;2022-07-03T02:46:20;17.80;99.90
13596;DHT22;6868;52.544;13.416;2022-07-03T02:49:38;17.80;99.90
13596;DHT22;6868;52.544;13.416;2022-07-03T02:52:10;17.80;99.90
13596;DHT22;6868;52.544;13.416;2022-07-03T02:54:39;17.80;99.90
13596;DHT22;6868;52.544;13.416;2022-07-03T02:57:08;17.80;99.90
13596;DHT22;6868;52.544;13.416;2022-07-03T02:59:39;17.70;99.90
13596;DHT22;6868;52.544;13.416;2022-07-03T03:02:13;17.70;99.90
13596;DHT22;6868;52.544;13.416;2022-07-03T03:04:44;17.70;99.90
13596;DHT22;6868;52.544;13.416;2022-07-03T03:07:14;17.70;99.90
13596;DHT22;6868;52.544;13.416;2022-07-03T03:09:43;17.60;99.90
13596;DHT22;6868;52.544;13.416;2022-07-03T03:12:10;17.60;99.90
13596;DHT22;6868;52.544;13.416;2022-07-03T03:14:38;17.60;99.90
13596;DHT22;6868;52.544;13.416;2022-07-03T03:17:07;17.60;99.90
13596;DHT22;6868;52.544;13.416;2022-07-03T03:19:36;17.70;99.90
13596;DHT22;6868;52.544;13.416;2022-07-03T03:22:06;17.60;99.90
13596;DHT22;6868;52.544;13.416;2022-07-03T03:24:33;17.60;99.90
13596;DHT22;6868;52.544;13.416;2022-07-03T03:27:00;17.60;99.90
13596;DHT22;6868;52.544;13.416;2022-07-03T03:29:27;17.60;99.90
13596;DHT22;6868;52.544;13.416;2022-07-03T03:31:56;17.60;99.90
13596;DHT22;6868;52.544;13.416;2022-07-03T03:34:25;17.60;99.90
13596;DHT22;6868;52.544;13.416;2022-07-03T03:36:52;17.60;99.90
13596;DHT22;6868;52.544;13.416;2022-07-03T03:39:21;17.70;99.90
13596;DHT22;6868;52.544;13.416;2022-07-03T03:41:48;17.70;99.90
13596;DHT22;6868;52.544;13.416;2022-07-03T03:44:15;17.70;99.90
13596;DHT22;6868;52.544;13.416;2022-07-03T03:46:42;17.70;99.90
13596;DHT22;6868;52.544;13.416;2022-07-03T03:49:09;17.70;99.90
13596;DHT22;6868;52.544;13.416;2022-07-03T03:51:36;17.80;99.90
13596;DHT22;6868;52.544;13.416;2022-07-03T03:54:02;17.80;99.90
13596;DHT22;6868;52.544;13.416;2022-07-03T03:56:31;17.70;99.90
13596;DHT22;6868;52.544;13.416;2022-07-03T03:58:58;17.80;99.90
13596;DHT22;6868;52.544;13.416;2022-07-03T04:01:25;17.80;99.90
13596;DHT22;6868;52.544;13.416;2022-07-03T04:03:52;17.90;99.90
13596;DHT22;6868;52.544;13.416;2022-07-03T04:06:19;17.80;99.90
13596;DHT22;6868;52.544;13.416;2022-07-03T04:08:46;18.00;99.90
13596;DHT22;6868;52.544;13.416;2022-07-03T04:11:12;18.00;99.90
13596;DHT22;6868;52.544;13.416;2022-07-03T04:13:41;18.00;99.90
13596;DHT22;6868;52.544;13.416;2022-07-03T04:16:08;18.10;99.90
13596;DHT22;6868;52.544;13.416;2022-07-03T04:18:34;18.20;99.90
13596;DHT22;6868;52.544;13.416;2022-07-03T04:21:01;18.20;99.90
13596;DHT22;6868;52.544;13.416;2022-07-03T04:23:28;18.30;99.90
13596;DHT22;6868;52.544;13.416;2022-07-03T04:25:55;18.30;99.90
13596;DHT22;6868;52.544;13.416;2022-07-03T04:28:22;18.30;99.90
13596;DHT22;6868;52.544;13.416;2022-07-03T04:30:50;18.40;99.90
13596;DHT22;6868;52.544;13.416;2022-07-03T04:33:16;18.50;99.90
13596;DHT22;6868;52.544;13.416;2022-07-03T04:35:43;18.60;99.90
13596;DHT22;6868;52.544;13.416;2022-07-03T04:38:10;18.70;99.90
13596;DHT22;6868;52.544;13.416;2022-07-03T04:40:37;18.80;99.90
13596;DHT22;6868;52.544;13.416;2022-07-03T04:43:03;19.00;99.90
13596;DHT22;6868;52.544;13.416;2022-07-03T04:45:30;19.50;99.90
13596;DHT22;6868;52.544;13.416;2022-07-03T04:47:58;20.10;99.90
13596;DHT22;6868;52.544;13.416;2022-07-03T04:50:25;20.80;99.90
13596;DHT22;6868;52.544;13.416;2022-07-03T04:52:52;21.30;99.90
13596;DHT22;6868;52.544;13.416;2022-07-03T04:55:20;21.90;99.90
13596;DHT22;6868;52.544;13.416;2022-07-03T04:57:46;22.30;99.90
13596;DHT22;6868;52.544;13.416;2022-07-03T05:02:40;23.00;99.90
13596;DHT22;6868;52.544;13.416;2022-07-03T05:05:08;23.20;99.90
13596;DHT22;6868;52.544;13.416;2022-07-03T05:07:35;23.30;99.90
13596;DHT22;6868;52.544;13.416;2022-07-03T05:10:02;23.40;99.90
13596;DHT22;6868;52.544;13.416;2022-07-03T05:14:55;23.90;99.90
13596;DHT22;6868;52.544;13.416;2022-07-03T05:17:22;24.10;99.90
13596;DHT22;6868;52.544;13.416;2022-07-03T05:19:49;24.50;99.90
13596;DHT22;6868;52.544;13.416;2022-07-03T05:22:38;25.00;99.90
13596;DHT22;6868;52.544;13.416;2022-07-03T05:25:05;25.30;99.90
13596;DHT22;6868;52.544;13.416;2022-07-03T05:27:34;25.70;99.90
13596;DHT22;6868;52.544;13.416;2022-07-03T05:30:01;25.60;99.90
13596;DHT22;6868;52.544;13.416;2022-07-03T05:32:28;25.70;99.90
13596;DHT22;6868;52.544;13.416;2022-07-03T05:34:54;25.70;99.90
13596;DHT22;6868;52.544;13.416;2022-07-03T05:37:21;25.80;99.90
13596;DHT22;6868;52.544;13.416;2022-07-03T05:39:49;25.90;99.90
13596;DHT22;6868;52.544;13.416;2022-07-03T05:42:15;26.30;99.90
13596;DHT22;6868;52.544;13.416;2022-07-03T05:44:41;26.40;99.90
13596;DHT22;6868;52.544;13.416;2022-07-03T05:47:08;26.70;99.90
13596;DHT22;6868;52.544;13.416;2022-07-03T05:49:35;26.70;99.90
13596;DHT22;6868;52.544;13.416;2022-07-03T05:52:02;26.60;99.90
13596;DHT22;6868;52.544;13.416;2022-07-03T05:54:29;26.80;99.90
13596;DHT22;6868;52.544;13.416;2022-07-03T05:56:57;27.00;99.90
13596;DHT22;6868;52.544;13.416;2022-07-03T05:59:23;26.90;99.20
13596;DHT22;6868;52.544;13.416;2022-07-03T06:01:50;27.00;98.60
13596;DHT22;6868;52.544;13.416;2022-07-03T06:04:17;27.20;97.10
13596;DHT22;6868;52.544;13.416;2022-07-03T06:06:44;27.60;94.80
13596;DHT22;6868;52.544;13.416;2022-07-03T06:09:11;28.60;87.50
13596;DHT22;6868;52.544;13.416;2022-07-03T06:11:38;28.60;87.30
13596;DHT22;6868;52.544;13.416;2022-07-03T06:14:06;28.80;79.50
13596;DHT22;6868;52.544;13.416;2022-07-03T06:19:00;29.70;68.50
13596;DHT22;6868;52.544;13.416;2022-07-03T06:21:26;30.10;63.90
13596;DHT22;6868;52.544;13.416;2022-07-03T06:23:53;29.80;62.50
13596;DHT22;6868;52.544;13.416;2022-07-03T06:26:20;29.90;62.50
13596;DHT22;6868;52.544;13.416;2022-07-03T06:28:47;29.40;59.40
13596;DHT22;6868;52.544;13.416;2022-07-03T06:31:15;29.80;59.00
13596;DHT22;6868;52.544;13.416;2022-07-03T06:33:41;30.00;57.30
13596;DHT22;6868;52.544;13.416;2022-07-03T06:36:11;30.10;54.50
13596;DHT22;6868;52.544;13.416;2022-07-03T06:38:38;30.40;53.40
13596;DHT22;6868;52.544;13.416;2022-07-03T06:41:04;30.70;52.70
13596;DHT22;6868;52.544;13.416;2022-07-03T06:43:31;31.10;50.20
13596;DHT22;6868;52.544;13.416;2022-07-03T06:45:58;30.90;48.70
13596;DHT22;6868;52.544;13.416;2022-07-03T06:48:26;30.40;48.80
13596;DHT22;6868;52.544;13.416;2022-07-03T06:50:53;30.20;49.60
13596;DHT22;6868;52.544;13.416;2022-07-03T06:53:22;29.70;51.50
13596;DHT22;6868;52.544;13.416;2022-07-03T06:55:48;29.40;53.30
13596;DHT22;6868;52.544;13.416;2022-07-03T06:58:15;29.40;53.40
13596;DHT22;6868;52.544;13.416;2022-07-03T07:00:42;29.30;53.40
13596;DHT22;6868;52.544;13.416;2022-07-03T07:03:08;29.20;54.50
13596;DHT22;6868;52.544;13.416;2022-07-03T07:05:39;29.10;55.70
13596;DHT22;6868;52.544;13.416;2022-07-03T07:08:06;29.80;53.90
13596;DHT22;6868;52.544;13.416;2022-07-03T07:10:33;30.00;52.20
13596;DHT22;6868;52.544;13.416;2022-07-03T07:12:59;30.40;51.60
13596;DHT22;6868;52.544;13.416;2022-07-03T07:15:26;30.50;50.60
13596;DHT22;6868;52.544;13.416;2022-07-03T07:17:53;30.90;50.00
13596;DHT22;6868;52.544;13.416;2022-07-03T07:20:19;30.80;48.10
13596;DHT22;6868;52.544;13.416;2022-07-03T07:22:48;31.00;47.90
13596;DHT22;6868;52.544;13.416;2022-07-03T07:25:14;30.60;47.40
13596;DHT22;6868;52.544;13.416;2022-07-03T07:27:41;30.50;48.60
13596;DHT22;6868;52.544;13.416;2022-07-03T07:30:08;30.70;47.80
13596;DHT22;6868;52.544;13.416;2022-07-03T07:32:35;30.70;46.20
13596;DHT22;6868;52.544;13.416;2022-07-03T07:35:02;30.50;47.50
13596;DHT22;6868;52.544;13.416;2022-07-03T07:37:30;31.30;45.80
13596;DHT22;6868;52.544;13.416;2022-07-03T07:54:43;31.50;45.40
13596;DHT22;6868;52.544;13.416;2022-07-03T07:57:09;30.60;44.70
13596;DHT22;6868;52.544;13.416;2022-07-03T07:59:36;30.30;45.30
13596;DHT22;6868;52.544;13.416;2022-07-03T08:02:03;30.90;46.50
13596;DHT22;6868;52.544;13.416;2022-07-03T08:04:47;31.40;43.00
13596;DHT22;6868;52.544;13.416;2022-07-03T08:10:10;30.80;42.10
13596;DHT22;6868;52.544;13.416;2022-07-03T08:12:37;30.50;42.00
13596;DHT22;6868;52.544;13.416;2022-07-03T08:15:04;30.60;42.70
13596;DHT22;6868;52.544;13.416;2022-07-03T08:17:31;31.50;42.20
13596;DHT22;6868;52.544;13.416;2022-07-03T08:19:58;31.60;39.60
13596;DHT22;6868;52.544;13.416;2022-07-03T08:54:18;31.80;39.70
13596;DHT22;6868;52.544;13.416;2022-07-03T08:56:45;27.80;50.70
13596;DHT22;6868;52.544;13.416;2022-07-03T08:59:13;27.70;52.90
13596;DHT22;6868;52.544;13.416;2022-07-03T09:01:40;27.60;54.10
13596;DHT22;6868;52.544;13.416;2022-07-03T09:04:10;27.40;54.70
13596;DHT22;6868;52.544;13.416;2022-07-03T09:06:38;27.30;56.20
13596;DHT22;6868;52.544;13.416;2022-07-03T09:09:06;26.90;56.80
13596;DHT22;6868;52.544;13.416;2022-07-03T09:11:34;26.80;60.50
13596;DHT22;6868;52.544;13.416;2022-07-03T09:14:01;26.70;59.00
13596;DHT22;6868;52.544;13.416;2022-07-03T09:16:32;26.70;60.10
13596;DHT22;6868;52.544;13.416;2022-07-03T09:19:00;26.90;60.60
13596;DHT22;6868;52.544;13.416;2022-07-03T09:21:34;27.10;62.90
13596;DHT22;6868;52.544;13.416;2022-07-03T09:24:02;27.30;61.30
13596;DHT22;6868;52.544;13.416;2022-07-03T09:26:30;27.30;58.10
13596;DHT22;6868;52.544;13.416;2022-07-03T09:28:58;27.20;57.80
13596;DHT22;6868;52.544;13.416;2022-07-03T09:31:25;27.30;60.20
13596;DHT22;6868;52.544;13.416;2022-07-03T09:33:54;27.30;60.10
13596;DHT22;6868;52.544;13.416;2022-07-03T09:36:21;27.30;59.10
13596;DHT22;6868;52.544;13.416;2022-07-03T09:38:48;27.20;57.10
13596;DHT22;6868;52.544;13.416;2022-07-03T09:41:15;27.00;57.40
13596;DHT22;6868;52.544;13.416;2022-07-03T09:43:43;26.90;58.70
13596;DHT22;6868;52.544;13.416;2022-07-03T09:46:11;26.80;58.10
13596;DHT22;6868;52.544;13.416;2022-07-03T09:48:38;27.10;58.90
13596;DHT22;6868;52.544;13.416;2022-07-03T09:51:09;27.00;57.00
13596;DHT22;6868;52.544;13.416;2022-07-03T09:53:46;26.90;57.30
13596;DHT22;6868;52.544;13.416;2022-07-03T09:56:13;26.80;56.60
13596;DHT22;6868;52.544;13.416;2022-07-03T09:58:41;26.40;58.30
13596;DHT22;6868;52.544;13.416;2022-07-03T10:01:26;26.30;59.20
13596;DHT22;6868;52.544;13.416;2022-07-03T10:03:53;26.40;61.90
13596;DHT22;6868;52.544;13.416;2022-07-03T10:06:20;26.80;64.40
13596;DHT22;6868;52.544;13.416;2022-07-03T10:08:47;27.20;61.80
13596;DHT22;6868;52.544;13.416;2022-07-03T10:11:16;27.50;59.40
13596;DHT22;6868;52.544;13.416;2022-07-03T10:13:42;27.80;56.20
13596;DHT22;6868;52.544;13.416;2022-07-03T10:16:11;27.70;55.10
13596;DHT22;6868;52.544;13.416;2022-07-03T10:18:40;27.80;56.00
13596;DHT22;6868;52.544;13.416;2022-07-03T10:21:14;28.00;55.30
13596;DHT22;6868;52.544;13.416;2022-07-03T10:23:41;28.10;53.30
13596;DHT22;6868;52.544;13.416;2022-07-03T10:26:09;27.90;54.40
13596;DHT22;6868;52.544;13.416;2022-07-03T10:28:36;27.90;56.30
13596;DHT22;6868;52.544;13.416;2022-07-03T10:31:03;28.10;56.00
13596;DHT22;6868;52.544;13.416;2022-07-03T10:33:31;28.10;55.40
13596;DHT22;6868;52.544;13.416;2022-07-03T10:36:03;28.10;57.20
13596;DHT22;6868;52.544;13.416;2022-07-03T10:38:34;28.20;56.30
13596;DHT22;6868;52.544;13.416;2022-07-03T10:41:03;28.00;54.90
13596;DHT22;6868;52.544;13.416;2022-07-03T10:43:49;28.10;56.90
13596;DHT22;6868;52.544;13.416;2022-07-03T10:46:35;27.80;54.10
13596;DHT22;6868;52.544;13.416;2022-07-03T10:49:05;27.60;56.00
13596;DHT22;6868;52.544;13.416;2022-07-03T10:54:16;27.90;57.10
13596;DHT22;6868;52.544;13.416;2022-07-03T11:02:20;28.10;57.10
13596;DHT22;6868;52.544;13.416;2022-07-03T11:05:05;28.10;56.20
13596;DHT22;6868;52.544;13.416;2022-07-03T11:07:33;28.20;56.80
13596;DHT22;6868;52.544;13.416;2022-07-03T11:12:55;28.50;57.00
13596;DHT22;6868;52.544;13.416;2022-07-03T11:15:26;28.60;56.00
13596;DHT22;6868;52.544;13.416;2022-07-03T11:20:46;28.30;55.10
13596;DHT22;6868;52.544;13.416;2022-07-03T11:23:16;28.30;56.10
13596;DHT22;6868;52.544;13.416;2022-07-03T11:25:44;28.30;56.60
13596;DHT22;6868;52.544;13.416;2022-07-03T11:33:43;28.50;56.30
13596;DHT22;6868;52.544;13.416;2022-07-03T11:36:10;28.40;55.40
13596;DHT22;6868;52.544;13.416;2022-07-03T11:38:37;28.50;54.90
13596;DHT22;6868;52.544;13.416;2022-07-03T11:41:06;28.70;54.10
13596;DHT22;6868;52.544;13.416;2022-07-03T11:43:33;28.60;53.70
13596;DHT22;6868;52.544;13.416;2022-07-03T11:46:01;28.60;53.80
13596;DHT22;6868;52.544;13.416;2022-07-03T11:48:28;28.60;54.50
13596;DHT22;6868;52.544;13.416;2022-07-03T11:51:00;28.90;54.10
13596;DHT22;6868;52.544;13.416;2022-07-03T11:53:28;28.80;51.40
13596;DHT22;6868;52.544;13.416;2022-07-03T11:55:56;28.60;50.80
13596;DHT22;6868;52.544;13.416;2022-07-03T11:58:23;28.40;51.50
13596;DHT22;6868;52.544;13.416;2022-07-03T12:00:50;28.30;52.90
13596;DHT22;6868;52.544;13.416;2022-07-03T12:03:22;28.40;53.00
13596;DHT22;6868;52.544;13.416;2022-07-03T12:05:51;28.60;53.00
13596;DHT22;6868;52.544;13.416;2022-07-03T12:08:22;28.80;51.10
13596;DHT22;6868;52.544;13.416;2022-07-03T12:10:49;28.90;50.30
13596;DHT22;6868;52.544;13.416;2022-07-03T12:13:19;28.90;48.60
13596;DHT22;6868;52.544;13.416;2022-07-03T12:15:47;28.80;50.30
13596;DHT22;6868;52.544;13.416;2022-07-03T12:18:14;28.40;49.30
13596;DHT22;6868;52.544;13.416;2022-07-03T12:20:42;28.50;50.40
13596;DHT22;6868;52.544;13.416;2022-07-03T12:23:09;28.60;49.60
13596;DHT22;6868;52.544;13.416;2022-07-03T12:25:40;28.80;50.00
13596;DHT22;6868;52.544;13.416;2022-07-03T12:28:08;29.20;48.30
13596;DHT22;6868;52.544;13.416;2022-07-03T12:30:35;29.30;47.50
13596;DHT22;6868;52.544;13.416;2022-07-03T12:33:03;29.60;47.60
13596;DHT22;6868;52.544;13.416;2022-07-03T12:35:30;29.20;45.20
13596;DHT22;6868;52.544;13.416;2022-07-03T12:37:58;28.70;47.00
13596;DHT22;6868;52.544;13.416;2022-07-03T12:40:24;28.80;47.50
13596;DHT22;6868;52.544;13.416;2022-07-03T12:42:53;29.00;47.50
13596;DHT22;6868;52.544;13.416;2022-07-03T12:45:21;29.30;46.10
13596;DHT22;6868;52.544;13.416;2022-07-03T12:47:58;29.80;46.10
13596;DHT22;6868;52.544;13.416;2022-07-03T12:50:26;30.10;45.20
13596;DHT22;6868;52.544;13.416;2022-07-03T12:52:54;30.40;45.10
13596;DHT22;6868;52.544;13.416;2022-07-03T12:55:22;30.80;41.00
13596;DHT22;6868;52.544;13.416;2022-07-03T12:57:49;30.70;41.40
13596;DHT22;6868;52.544;13.416;2022-07-03T13:00:42;30.90;41.10
13596;DHT22;6868;52.544;13.416;2022-07-03T13:03:25;31.20;40.60
13596;DHT22;6868;52.544;13.416;2022-07-03T13:05:53;31.40;39.40
13596;DHT22;6868;52.544;13.416;2022-07-03T13:08:20;31.30;37.70
13596;DHT22;6868;52.544;13.416;2022-07-03T13:10:56;31.40;37.50
13596;DHT22;6868;52.544;13.416;2022-07-03T13:13:23;31.20;36.60
13596;DHT22;6868;52.544;13.416;2022-07-03T13:15:52;30.70;35.80
13596;DHT22;6868;52.544;13.416;2022-07-03T13:18:19;30.30;37.30
13596;DHT22;6868;52.544;13.416;2022-07-03T13:20:46;30.10;37.80
13596;DHT22;6868;52.544;13.416;2022-07-03T13:23:13;30.30;37.90
13596;DHT22;6868;52.544;13.416;2022-07-03T13:25:40;30.50;39.30
13596;DHT22;6868;52.544;13.416;2022-07-03T13:28:08;30.70;36.90
13596;DHT22;6868;52.544;13.416;2022-07-03T13:30:35;30.50;37.60
13596;DHT22;6868;52.544;13.416;2022-07-03T13:33:04;30.50;36.50
13596;DHT22;6868;52.544;13.416;2022-07-03T13:35:31;30.30;36.60
13596;DHT22;6868;52.544;13.416;2022-07-03T13:37:58;30.00;35.90
13596;DHT22;6868;52.544;13.416;2022-07-03T13:40:25;29.80;36.30
13596;DHT22;6868;52.544;13.416;2022-07-03T13:42:52;29.80;36.30
13596;DHT22;6868;52.544;13.416;2022-07-03T13:45:20;29.80;36.50
13596;DHT22;6868;52.544;13.416;2022-07-03T13:47:47;29.70;37.10
13596;DHT22;6868;52.544;13.416;2022-07-03T13:50:16;29.60;38.00
13596;DHT22;6868;52.544;13.416;2022-07-03T13:52:43;29.70;38.10
13596;DHT22;6868;52.544;13.416;2022-07-03T13:55:18;29.90;38.10
13596;DHT22;6868;52.544;13.416;2022-07-03T13:57:44;29.90;37.70
13596;DHT22;6868;52.544;13.416;2022-07-03T14:00:12;29.90;37.00
13596;DHT22;6868;52.544;13.416;2022-07-03T14:02:39;30.00;36.70
13596;DHT22;6868;52.544;13.416;2022-07-03T14:05:06;30.20;35.90
13596;DHT22;6868;52.544;13.416;2022-07-03T14:07:34;30.10;35.60
13596;DHT22;6868;52.544;13.416;2022-07-03T14:10:01;30.30;35.30
13596;DHT22;6868;52.544;13.416;2022-07-03T14:12:32;30.40;35.10
13596;DHT22;6868;52.544;13.416;2022-07-03T14:14:59;30.40;36.00
13596;DHT22;6868;52.544;13.416;2022-07-03T14:17:27;30.60;35.10
13596;DHT22;6868;52.544;13.416;2022-07-03T14:19:54;30.80;36.10
13596;DHT22;6868;52.544;13.416;2022-07-03T14:22:21;31.10;34.60
13596;DHT22;6868;52.544;13.416;2022-07-03T14:24:49;31.30;33.70
13596;DHT22;6868;52.544;13.416;2022-07-03T14:27:16;31.50;33.10
13596;DHT22;6868;52.544;13.416;2022-07-03T14:30:00;31.50;32.50
13596;DHT22;6868;52.544;13.416;2022-07-03T14:32:44;31.40;32.40
13596;DHT22;6868;52.544;13.416;2022-07-03T14:35:11;31.40;32.20
13596;DHT22;6868;52.544;13.416;2022-07-03T14:37:38;31.50;32.80
13596;DHT22;6868;52.544;13.416;2022-07-03T14:40:06;31.20;31.00
13596;DHT22;6868;52.544;13.416;2022-07-03T14:42:33;31.10;31.30
13596;DHT22;6868;52.544;13.416;2022-07-03T14:45:00;31.00;32.50
13596;DHT22;6868;52.544;13.416;2022-07-03T14:47:27;31.20;32.70
13596;DHT22;6868;52.544;13.416;2022-07-03T14:49:57;31.40;32.50
13596;DHT22;6868;52.544;13.416;2022-07-03T14:52:24;31.20;30.70
13596;DHT22;6868;52.544;13.416;2022-07-03T14:54:51;31.10;30.90
13596;DHT22;6868;52.544;13.416;2022-07-03T14:57:25;30.90;30.20
13596;DHT22;6868;52.544;13.416;2022-07-03T14:59:58;30.90;31.20
13596;DHT22;6868;52.544;13.416;2022-07-03T15:02:32;30.90;31.40
13596;DHT22;6868;52.544;13.416;2022-07-03T15:05:05;30.90;31.60
13596;DHT22;6868;52.544;13.416;2022-07-03T15:07:33;30.90;31.00
13596;DHT22;6868;52.544;13.416;2022-07-03T15:10:02;30.60;31.70
13596;DHT22;6868;52.544;13.416;2022-07-03T15:12:32;30.50;32.70
13596;DHT22;6868;52.544;13.416;2022-07-03T15:14:59;30.60;32.00
13596;DHT22;6868;52.544;13.416;2022-07-03T15:17:26;30.70;31.90
13596;DHT22;6868;52.544;13.416;2022-07-03T15:19:53;30.50;31.90
13596;DHT22;6868;52.544;13.416;2022-07-03T15:22:21;30.50;31.60
13596;DHT22;6868;52.544;13.416;2022-07-03T15:24:49;30.40;32.20
13596;DHT22;6868;52.544;13.416;2022-07-03T15:27:18;30.50;31.20
13596;DHT22;6868;52.544;13.416;2022-07-03T15:29:48;30.50;30.90
13596;DHT22;6868;52.544;13.416;2022-07-03T15:32:15;30.50;31.20
13596;DHT22;6868;52.544;13.416;2022-07-03T15:34:42;30.70;30.60
13596;DHT22;6868;52.544;13.416;2022-07-03T15:37:12;30.50;34.10
13596;DHT22;6868;52.544;13.416;2022-07-03T15:39:41;30.30;33.00
13596;DHT22;6868;52.544;13.416;2022-07-03T15:42:10;30.30;31.10
13596;DHT22;6868;52.544;13.416;2022-07-03T15:44:45;30.30;30.30
13596;DHT22;6868;52.544;13.416;2022-07-03T15:47:24;30.40;31.10
13596;DHT22;6868;52.544;13.416;2022-07-03T15:49:53;30.60;31.50
13596;DHT22;6868;52.544;13.416;2022-07-03T15:52:21;30.60;30.70
13596;DHT22;6868;52.544;13.416;2022-07-03T15:55:01;30.60;31.40
13596;DHT22;6868;52.544;13.416;2022-07-03T15:57:31;30.70;31.40
13596;DHT22;6868;52.544;13.416;2022-07-03T15:59:59;30.80;31.80
13596;DHT22;6868;52.544;13.416;2022-07-03T16:02:32;30.90;31.40
13596;DHT22;6868;52.544;13.416;2022-07-03T16:05:04;30.80;30.30
13596;DHT22;6868;52.544;13.416;2022-07-03T16:07:33;30.80;31.10
13596;DHT22;6868;52.544;13.416;2022-07-03T16:10:01;30.80;31.40
13596;DHT22;6868;52.544;13.416;2022-07-03T16:12:28;30.60;30.50
13596;DHT22;6868;52.544;13.416;2022-07-03T16:14:56;30.40;31.00
13596;DHT22;6868;52.544;13.416;2022-07-03T16:17:27;30.20;32.00
13596;DHT22;6868;52.544;13.416;2022-07-03T16:19:55;30.10;32.30
13596;DHT22;6868;52.544;13.416;2022-07-03T16:22:24;30.20;32.20
13596;DHT22;6868;52.544;13.416;2022-07-03T16:24:59;30.20;31.40
13596;DHT22;6868;52.544;13.416;2022-07-03T16:27:27;30.10;30.80
13596;DHT22;6868;52.544;13.416;2022-07-03T16:29:54;30.10;31.50
13596;DHT22;6868;52.544;13.416;2022-07-03T16:32:24;30.00;31.90
13596;DHT22;6868;52.544;13.416;2022-07-03T16:34:54;30.00;32.10
13596;DHT22;6868;52.544;13.416;2022-07-03T16:37:25;29.90;31.80
13596;DHT22;6868;52.544;13.416;2022-07-03T16:39:54;29.90;31.90
13596;DHT22;6868;52.544;13.416;2022-07-03T16:42:24;29.90;32.10
13596;DHT22;6868;52.544;13.416;2022-07-03T16:44:54;30.00;32.20
13596;DHT22;6868;52.544;13.416;2022-07-03T16:47:23;30.00;32.40
13596;DHT22;6868;52.544;13.416;2022-07-03T16:49:51;30.10;32.60
13596;DHT22;6868;52.544;13.416;2022-07-03T16:52:19;30.10;32.30
13596;DHT22;6868;52.544;13.416;2022-07-03T16:54:49;30.00;32.60
13596;DHT22;6868;52.544;13.416;2022-07-03T16:57:16;30.00;32.60
13596;DHT22;6868;52.544;13.416;2022-07-03T16:59:44;29.90;32.70
13596;DHT22;6868;52.544;13.416;2022-07-03T17:02:13;29.90;32.80